Time;durP1;ratioP1;P1;durP2;ratioP2;P2;SDS_P1;SDS_P2;PMS_P1;PMS_P2;Temp;Humidity;BMP_temperature;BMP_pressure;BME280_temperature;BME280_humidity;BME280_pressure;Samples;Min_cycle;Max_cycle;Signal;HPM_P1;HPM_P2
2022/09/14 00:01:45;;;;;;;12.70;2.20;;;;;;;;;;4994910;28;20034;-78
2022/09/14 00:04:13;;;;;;;7.80;1.90;;;;;;;;;;5001236;28;20375;-78
2022/09/14 00:06:39;;;;;;;10.63;1.90;;;;;;;;;;4994604;28;20460;-78
2022/09/14 00:09:06;;;;;;;9.15;2.10;;;;;;;;;;4997170;28;20025;-78
2022/09/14 00:11:32;;;;;;;7.45;2.10;;;;;;;;;;4992340;28;20222;-78
2022/09/14 00:14:00;;;;;;;9.68;2.13;;;;;;;;;;4997560;28;20407;-78
2022/09/14 00:16:28;;;;;;;8.52;2.00;;;;;;;;;;4995182;28;20254;-78
2022/09/14 00:18:56;;;;;;;7.90;1.60;;;;;;;;;;4995125;28;20030;-78
2022/09/14 00:21:22;;;;;;;4.78;2.30;;;;;;;;;;4997191;28;20038;-78
2022/09/14 00:23:48;;;;;;;10.15;2.03;;;;;;;;;;4995523;28;20131;-77
2022/09/14 00:26:16;;;;;;;5.45;1.77;;;;;;;;;;4991138;28;20040;-78
2022/09/14 00:28:44;;;;;;;9.60;1.88;;;;;;;;;;4996551;28;20109;-77
2022/09/14 00:31:10;;;;;;;10.57;1.70;;;;;;;;;;4994774;28;20058;-78
2022/09/14 00:33:37;;;;;;;7.20;1.98;;;;;;;;;;4993271;28;20027;-77
2022/09/14 00:36:14;;;;;;;10.48;2.95;;;;;;;;;;4996422;28;20391;-77
2022/09/14 00:38:40;;;;;;;11.00;3.50;;;;;;;;;;4993641;28;20029;-78
2022/09/14 00:41:07;;;;;;;8.13;3.10;;;;;;;;;;4996933;28;20462;-78
2022/09/14 00:43:33;;;;;;;7.47;2.95;;;;;;;;;;4991267;28;20025;-78
2022/09/14 00:46:01;;;;;;;11.13;3.83;;;;;;;;;;4991953;28;20058;-78
2022/09/14 00:48:29;;;;;;;14.63;6.32;;;;;;;;;;4991223;28;20113;-77
2022/09/14 00:50:55;;;;;;;16.83;9.35;;;;;;;;;;4995056;28;20034;-78
2022/09/14 00:53:22;;;;;;;12.93;6.93;;;;;;;;;;4989077;28;20069;-77
2022/09/14 00:55:48;;;;;;;9.57;5.00;;;;;;;;;;4995471;28;20053;-78
2022/09/14 00:58:14;;;;;;;7.85;4.05;;;;;;;;;;4993309;28;20045;-78
2022/09/14 01:00:40;;;;;;;13.23;4.40;;;;;;;;;;4997888;28;20038;-78
2022/09/14 01:03:06;;;;;;;8.73;2.83;;;;;;;;;;4994223;28;20077;-78
2022/09/14 01:05:59;;;;;;;6.18;2.08;;;;;;;;;;4998905;28;20068;-78
2022/09/14 01:08:31;;;;;;;7.70;1.33;;;;;;;;;;4961808;28;20057;-78
2022/09/14 01:11:04;;;;;;;9.15;1.73;;;;;;;;;;4993907;28;20048;-78
2022/09/14 01:13:41;;;;;;;3.53;1.10;;;;;;;;;;4990297;28;20026;-78
2022/09/14 01:16:24;;;;;;;6.60;1.63;;;;;;;;;;4996403;28;20038;-78
2022/09/14 01:18:52;;;;;;;4.38;1.60;;;;;;;;;;4991721;28;20498;-77
2022/09/14 01:21:31;;;;;;;7.72;2.47;;;;;;;;;;4978830;28;20109;-78
2022/09/14 01:24:06;;;;;;;6.75;1.85;;;;;;;;;;4994018;28;20037;-78
2022/09/14 01:26:38;;;;;;;9.32;2.40;;;;;;;;;;4998115;28;20042;-78
2022/09/14 01:29:07;;;;;;;12.38;2.97;;;;;;;;;;4993508;28;20038;-78
2022/09/14 01:31:42;;;;;;;9.32;3.60;;;;;;;;;;4997172;28;20065;-78
2022/09/14 01:34:10;;;;;;;10.45;2.17;;;;;;;;;;4991721;28;20515;-78
2022/09/14 01:36:38;;;;;;;11.18;2.50;;;;;;;;;;4989875;28;20120;-77
2022/09/14 01:39:05;;;;;;;5.50;1.63;;;;;;;;;;4993657;28;20046;-78
2022/09/14 01:41:32;;;;;;;7.57;1.80;;;;;;;;;;4995633;28;20511;-78
2022/09/14 01:44:09;;;;;;;4.97;1.60;;;;;;;;;;4996047;28;20042;-77
2022/09/14 01:46:39;;;;;;;7.97;1.55;;;;;;;;;;4992445;28;20116;-78
2022/09/14 01:49:44;;;;;;;11.35;1.77;;;;;;;;;;4993032;28;20037;-78
2022/09/14 01:52:09;;;;;;;6.60;1.65;;;;;;;;;;4898097;29;20047;-78
2022/09/14 01:54:35;;;;;;;9.40;1.90;;;;;;;;;;4901822;29;20039;-77
2022/09/14 01:57:11;;;;;;;7.97;1.85;;;;;;;;;;4943963;28;20038;-77
2022/09/14 01:59:41;;;;;;;7.78;1.95;;;;;;;;;;4994861;28;20049;-78
2022/09/14 02:02:09;;;;;;;9.20;2.33;;;;;;;;;;4995530;28;20026;-78
2022/09/14 02:04:42;;;;;;;10.23;1.95;;;;;;;;;;4994241;28;20470;-77
2022/09/14 02:07:08;;;;;;;7.43;1.40;;;;;;;;;;4995253;28;20762;-77
2022/09/14 02:09:34;;;;;;;6.07;1.50;;;;;;;;;;4992625;28;20293;-77
2022/09/14 02:12:01;;;;;;;4.13;1.52;;;;;;;;;;4996570;28;20053;-77
2022/09/14 02:14:27;;;;;;;8.93;1.73;;;;;;;;;;4989882;28;20034;-77
2022/09/14 02:16:53;;;;;;;11.40;2.17;;;;;;;;;;4995483;28;20034;-77
2022/09/14 02:19:19;;;;;;;6.63;1.40;;;;;;;;;;4995068;28;20486;-78
2022/09/14 02:21:46;;;;;;;11.15;1.40;;;;;;;;;;4991529;28;20038;-77
2022/09/14 02:24:12;;;;;;;7.60;1.63;;;;;;;;;;4982876;28;20031;-77
2022/09/14 02:26:39;;;;;;;7.55;1.45;;;;;;;;;;4993155;28;20034;-78
2022/09/14 02:29:05;;;;;;;9.60;1.50;;;;;;;;;;4994798;28;20074;-77
2022/09/14 02:31:41;;;;;;;9.30;2.13;;;;;;;;;;4995162;28;20039;-77
2022/09/14 02:34:07;;;;;;;7.75;1.63;;;;;;;;;;4993522;28;20060;-77
2022/09/14 02:36:33;;;;;;;9.13;1.73;;;;;;;;;;4992606;28;20357;-78
2022/09/14 02:39:03;;;;;;;8.57;2.03;;;;;;;;;;4993902;28;20133;-77
2022/09/14 02:41:49;;;;;;;13.55;2.08;;;;;;;;;;4991736;28;20034;-77
2022/09/14 02:44:22;;;;;;;7.78;1.90;;;;;;;;;;4992422;28;20046;-78
2022/09/14 02:46:54;;;;;;;10.88;2.05;;;;;;;;;;4978160;28;20533;-77
2022/09/14 02:49:35;;;;;;;8.52;1.63;;;;;;;;;;4983508;28;20555;-77
2022/09/14 02:52:04;;;;;;;9.80;1.77;;;;;;;;;;4980405;28;20039;-78
2022/09/14 02:54:32;;;;;;;9.55;1.88;;;;;;;;;;4976996;28;20062;-78
2022/09/14 02:57:02;;;;;;;9.77;1.63;;;;;;;;;;4982054;28;20126;-78
2022/09/14 02:59:28;;;;;;;6.03;1.60;;;;;;;;;;4973659;28;20646;-77
2022/09/14 03:01:55;;;;;;;11.52;1.67;;;;;;;;;;4976293;28;20085;-77
2022/09/14 03:04:21;;;;;;;9.27;1.98;;;;;;;;;;4977924;28;20034;-78
2022/09/14 03:06:47;;;;;;;12.27;1.77;;;;;;;;;;4977317;28;20039;-78
2022/09/14 03:09:13;;;;;;;8.95;1.70;;;;;;;;;;4973753;28;20034;-77
2022/09/14 03:11:39;;;;;;;11.70;1.70;;;;;;;;;;4978890;28;20042;-77
2022/09/14 03:14:05;;;;;;;8.70;1.70;;;;;;;;;;4978228;28;20057;-77
2022/09/14 03:16:32;;;;;;;6.82;1.45;;;;;;;;;;4974922;28;20444;-79
2022/09/14 03:18:58;;;;;;;10.52;1.80;;;;;;;;;;4975670;28;20062;-77
2022/09/14 03:21:24;;;;;;;9.25;1.77;;;;;;;;;;4978208;28;20456;-78
2022/09/14 03:23:51;;;;;;;11.90;1.80;;;;;;;;;;4975801;28;20066;-77
2022/09/14 03:26:19;;;;;;;7.68;1.90;;;;;;;;;;4979904;28;20094;-78
2022/09/14 03:28:49;;;;;;;7.65;1.50;;;;;;;;;;4978956;28;20073;-78
2022/09/14 03:31:15;;;;;;;9.23;1.92;;;;;;;;;;4978808;28;20125;-78
2022/09/14 03:33:41;;;;;;;9.23;1.58;;;;;;;;;;4980085;28;20022;-78
2022/09/14 03:36:12;;;;;;;11.13;1.85;;;;;;;;;;4978525;28;20038;-78
2022/09/14 03:38:38;;;;;;;11.45;1.65;;;;;;;;;;4983916;28;20037;-77
2022/09/14 03:41:07;;;;;;;10.75;1.80;;;;;;;;;;4978197;28;20043;-78
2022/09/14 03:43:33;;;;;;;7.13;1.70;;;;;;;;;;4982305;28;20044;-77
2022/09/14 03:46:04;;;;;;;8.90;1.75;;;;;;;;;;4982784;28;20255;-77
2022/09/14 03:48:30;;;;;;;5.82;1.25;;;;;;;;;;4994423;28;20070;-77
2022/09/14 03:50:59;;;;;;;4.75;1.15;;;;;;;;;;5002949;28;20613;-78
2022/09/14 03:53:25;;;;;;;10.90;1.50;;;;;;;;;;4999853;28;20022;-78
2022/09/14 03:55:51;;;;;;;7.53;1.30;;;;;;;;;;4998726;28;20093;-77
2022/09/14 03:58:17;;;;;;;8.00;1.55;;;;;;;;;;4995731;28;20040;-77
2022/09/14 04:00:43;;;;;;;7.18;1.52;;;;;;;;;;4997125;28;20052;-77
2022/09/14 04:03:09;;;;;;;7.53;1.63;;;;;;;;;;4991306;28;20483;-77
2022/09/14 04:05:35;;;;;;;12.02;1.70;;;;;;;;;;5003458;28;20034;-77
2022/09/14 04:08:01;;;;;;;11.55;1.60;;;;;;;;;;4996694;28;20034;-78
2022/09/14 04:10:27;;;;;;;8.07;1.50;;;;;;;;;;5000744;28;20044;-77
2022/09/14 04:12:53;;;;;;;10.15;1.63;;;;;;;;;;4997681;28;20026;-78
2022/09/14 04:15:19;;;;;;;10.13;1.50;;;;;;;;;;4995389;28;20379;-77
2022/09/14 04:17:46;;;;;;;7.40;1.90;;;;;;;;;;4997447;28;20026;-77
2022/09/14 04:20:12;;;;;;;8.13;1.67;;;;;;;;;;5001250;28;20070;-77
2022/09/14 04:22:38;;;;;;;10.27;1.52;;;;;;;;;;4996150;28;20038;-77
2022/09/14 04:25:04;;;;;;;7.55;1.73;;;;;;;;;;5001129;28;20049;-78
2022/09/14 04:27:30;;;;;;;8.43;1.73;;;;;;;;;;4993795;28;20480;-77
2022/09/14 04:29:57;;;;;;;8.13;1.80;;;;;;;;;;4999925;28;20045;-77
2022/09/14 04:32:23;;;;;;;16.60;2.15;;;;;;;;;;4993514;28;20022;-77
2022/09/14 04:34:49;;;;;;;8.68;1.60;;;;;;;;;;4994849;28;20494;-77
2022/09/14 04:37:15;;;;;;;8.57;1.80;;;;;;;;;;4995831;28;20109;-79
2022/09/14 04:39:41;;;;;;;10.90;2.22;;;;;;;;;;4999871;28;20034;-77
2022/09/14 04:42:07;;;;;;;10.93;2.35;;;;;;;;;;4998870;28;20041;-77
2022/09/14 04:44:33;;;;;;;8.40;1.83;;;;;;;;;;4993224;28;20125;-77
2022/09/14 04:46:59;;;;;;;10.27;1.77;;;;;;;;;;4998302;28;20084;-77
2022/09/14 04:49:25;;;;;;;10.38;2.25;;;;;;;;;;4997470;28;20041;-77
2022/09/14 04:51:51;;;;;;;8.52;1.80;;;;;;;;;;5000342;28;20357;-78
2022/09/14 04:54:17;;;;;;;12.55;2.78;;;;;;;;;;4995097;28;20039;-77
2022/09/14 04:56:44;;;;;;;9.85;2.47;;;;;;;;;;4977989;28;20097;-77
2022/09/14 04:59:10;;;;;;;10.57;1.95;;;;;;;;;;4993794;28;20033;-78
2022/09/14 05:01:40;;;;;;;8.27;1.80;;;;;;;;;;4999107;28;20442;-78
2022/09/14 05:04:07;;;;;;;9.82;2.25;;;;;;;;;;5000848;28;20048;-78
2022/09/14 05:06:34;;;;;;;6.72;2.53;;;;;;;;;;5000801;28;20037;-78
2022/09/14 05:09:00;;;;;;;10.40;2.28;;;;;;;;;;4999534;28;20042;-78
2022/09/14 05:11:30;;;;;;;10.32;2.80;;;;;;;;;;4995820;28;20089;-78
2022/09/14 05:13:57;;;;;;;10.73;2.50;;;;;;;;;;5001284;28;20583;-78
2022/09/14 05:16:25;;;;;;;13.30;3.30;;;;;;;;;;5000266;28;20037;-77
2022/09/14 05:18:53;;;;;;;9.82;2.88;;;;;;;;;;4996387;28;20034;-78
2022/09/14 05:21:20;;;;;;;9.52;2.67;;;;;;;;;;4996926;28;20554;-77
2022/09/14 05:23:46;;;;;;;10.90;1.77;;;;;;;;;;4999630;28;20151;-78
2022/09/14 05:26:13;;;;;;;9.30;1.85;;;;;;;;;;4997698;28;20034;-78
2022/09/14 05:28:39;;;;;;;7.45;1.90;;;;;;;;;;4984306;28;20109;-78
2022/09/14 05:31:06;;;;;;;10.90;2.10;;;;;;;;;;4995506;28;20037;-78
2022/09/14 05:33:32;;;;;;;7.78;2.83;;;;;;;;;;4999609;28;20447;-78
2022/09/14 05:36:02;;;;;;;8.38;1.88;;;;;;;;;;4995806;28;20487;-78
2022/09/14 05:38:29;;;;;;;8.80;1.90;;;;;;;;;;4998085;28;20035;-78
2022/09/14 05:40:55;;;;;;;10.77;3.00;;;;;;;;;;4998138;28;20450;-78
2022/09/14 05:43:21;;;;;;;12.52;2.50;;;;;;;;;;4996104;28;20037;-78
2022/09/14 05:45:47;;;;;;;5.72;1.67;;;;;;;;;;4988144;28;20045;-78
2022/09/14 05:48:14;;;;;;;8.02;2.17;;;;;;;;;;4991864;28;20041;-78
2022/09/14 05:50:40;;;;;;;7.75;1.88;;;;;;;;;;4991142;28;20341;-78
2022/09/14 05:53:06;;;;;;;9.13;2.42;;;;;;;;;;4993418;28;20203;-78
2022/09/14 05:55:32;;;;;;;6.20;1.27;;;;;;;;;;4989988;28;20041;-76
2022/09/14 05:57:58;;;;;;;5.70;1.70;;;;;;;;;;4993434;28;20535;-78
2022/09/14 06:00:24;;;;;;;6.28;1.75;;;;;;;;;;4987425;28;20042;-78
2022/09/14 06:02:51;;;;;;;10.35;1.60;;;;;;;;;;4992367;28;20033;-78
2022/09/14 06:05:17;;;;;;;12.07;1.77;;;;;;;;;;4989968;28;20387;-78
2022/09/14 06:07:43;;;;;;;6.65;1.63;;;;;;;;;;4997432;28;20034;-78
2022/09/14 06:10:10;;;;;;;8.38;2.05;;;;;;;;;;4995286;28;20048;-78
2022/09/14 06:12:36;;;;;;;15.23;3.28;;;;;;;;;;4996041;28;20403;-78
2022/09/14 06:15:02;;;;;;;11.27;1.90;;;;;;;;;;4993447;28;20034;-78
2022/09/14 06:17:31;;;;;;;9.63;1.70;;;;;;;;;;4993314;28;20034;-78
2022/09/14 06:19:57;;;;;;;8.90;1.90;;;;;;;;;;4999276;28;20038;-78
2022/09/14 06:22:23;;;;;;;7.68;1.20;;;;;;;;;;5002258;28;20029;-78
2022/09/14 06:24:49;;;;;;;7.55;1.50;;;;;;;;;;5000558;28;20085;-78
2022/09/14 06:27:15;;;;;;;10.52;1.83;;;;;;;;;;5004016;28;20034;-78
2022/09/14 06:29:41;;;;;;;10.57;1.42;;;;;;;;;;5003294;28;20035;-78
2022/09/14 06:32:07;;;;;;;7.95;1.90;;;;;;;;;;4987500;28;20031;-78
2022/09/14 06:34:33;;;;;;;8.70;2.38;;;;;;;;;;4999059;28;20519;-78
2022/09/14 06:36:59;;;;;;;9.38;2.30;;;;;;;;;;5004009;28;20053;-78
2022/09/14 06:39:25;;;;;;;8.75;2.10;;;;;;;;;;5001251;28;20038;-78
2022/09/14 06:41:51;;;;;;;13.10;2.53;;;;;;;;;;5002996;28;20103;-78
2022/09/14 06:44:17;;;;;;;12.23;1.92;;;;;;;;;;4998087;28;20041;-78
2022/09/14 06:46:44;;;;;;;8.30;1.83;;;;;;;;;;5001462;28;20657;-78
2022/09/14 06:49:11;;;;;;;9.43;1.75;;;;;;;;;;5004142;28;20026;-78
2022/09/14 06:51:41;;;;;;;7.10;1.45;;;;;;;;;;5003876;28;20038;-77
2022/09/14 06:54:08;;;;;;;8.77;1.67;;;;;;;;;;5005983;28;20467;-77
2022/09/14 06:56:35;;;;;;;11.90;2.83;;;;;;;;;;4980872;28;20104;-78
2022/09/14 06:59:01;;;;;;;12.25;2.53;;;;;;;;;;5001024;28;20435;-78
2022/09/14 07:01:28;;;;;;;14.48;2.38;;;;;;;;;;4999838;28;20033;-77
2022/09/14 07:03:54;;;;;;;11.80;2.28;;;;;;;;;;5003402;28;20033;-78
2022/09/14 07:06:26;;;;;;;6.63;1.58;;;;;;;;;;5001680;28;20038;-77
2022/09/14 07:08:52;;;;;;;13.95;1.95;;;;;;;;;;5004849;28;20048;-78
2022/09/14 07:11:19;;;;;;;8.05;2.00;;;;;;;;;;5002274;28;20046;-78
2022/09/14 07:13:45;;;;;;;13.27;2.20;;;;;;;;;;4985152;28;20026;-78
2022/09/14 07:16:11;;;;;;;14.75;2.22;;;;;;;;;;5000856;28;20030;-78
2022/09/14 07:18:38;;;;;;;14.30;2.75;;;;;;;;;;4987140;28;20108;-78
2022/09/14 07:21:05;;;;;;;13.73;2.15;;;;;;;;;;5001040;28;20034;-78
2022/09/14 07:23:31;;;;;;;12.07;2.13;;;;;;;;;;4999996;28;20065;-78
2022/09/14 07:26:06;;;;;;;11.90;1.95;;;;;;;;;;4988662;28;20372;-77
2022/09/14 07:28:32;;;;;;;16.05;2.28;;;;;;;;;;5001387;28;20088;-78
2022/09/14 07:30:58;;;;;;;10.77;1.83;;;;;;;;;;5002493;28;20037;-78
2022/09/14 07:33:24;;;;;;;10.57;2.20;;;;;;;;;;4998504;28;20060;-78
2022/09/14 07:35:51;;;;;;;10.07;2.00;;;;;;;;;;4997414;28;20116;-78
2022/09/14 07:38:17;;;;;;;11.55;2.03;;;;;;;;;;4999973;28;20104;-77
2022/09/14 07:40:44;;;;;;;14.10;2.60;;;;;;;;;;5003728;28;20041;-78
2022/09/14 07:43:10;;;;;;;9.07;1.75;;;;;;;;;;5001713;28;20042;-77
2022/09/14 07:45:36;;;;;;;11.48;2.13;;;;;;;;;;5002867;28;20435;-78
2022/09/14 07:48:02;;;;;;;11.38;2.28;;;;;;;;;;5000682;28;20467;-78
2022/09/14 07:50:28;;;;;;;17.67;2.67;;;;;;;;;;5002904;28;20096;-78
2022/09/14 07:52:54;;;;;;;17.02;2.50;;;;;;;;;;5002885;28;20025;-78
2022/09/14 07:55:20;;;;;;;10.75;2.65;;;;;;;;;;5001902;28;20033;-78
2022/09/14 07:57:47;;;;;;;14.63;2.88;;;;;;;;;;4997812;28;20400;-78
2022/09/14 08:00:13;;;;;;;7.85;1.75;;;;;;;;;;5003109;28;20041;-78
2022/09/14 08:02:39;;;;;;;12.70;2.20;;;;;;;;;;5000068;28;20445;-78
2022/09/14 08:05:06;;;;;;;8.63;1.70;;;;;;;;;;5002269;28;20361;-78
2022/09/14 08:07:32;;;;;;;13.02;2.30;;;;;;;;;;5003938;28;20379;-78
2022/09/14 08:09:58;;;;;;;11.27;2.08;;;;;;;;;;4996111;28;20042;-76
2022/09/14 08:12:24;;;;;;;18.90;2.03;;;;;;;;;;5001302;28;20037;-78
2022/09/14 08:14:52;;;;;;;9.98;2.00;;;;;;;;;;5003427;28;20034;-78
2022/09/14 08:17:20;;;;;;;8.80;2.05;;;;;;;;;;4996022;28;20031;-79
2022/09/14 08:19:46;;;;;;;8.88;1.65;;;;;;;;;;5001282;28;20186;-78
2022/09/14 08:22:12;;;;;;;10.40;2.42;;;;;;;;;;4999476;28;20038;-78
2022/09/14 08:24:39;;;;;;;9.68;2.25;;;;;;;;;;5002703;28;20037;-79
2022/09/14 08:27:05;;;;;;;11.90;2.30;;;;;;;;;;4998880;28;20149;-78
2022/09/14 08:29:31;;;;;;;8.80;1.98;;;;;;;;;;4999586;28;20545;-78
2022/09/14 08:31:57;;;;;;;10.10;2.20;;;;;;;;;;5000010;28;20121;-78
2022/09/14 08:34:23;;;;;;;8.57;1.55;;;;;;;;;;5002712;28;20530;-78
2022/09/14 08:36:49;;;;;;;8.25;2.40;;;;;;;;;;4997918;28;20483;-78
2022/09/14 08:39:16;;;;;;;12.15;2.70;;;;;;;;;;4995774;28;20029;-78
2022/09/14 08:41:45;;;;;;;9.32;2.17;;;;;;;;;;5004108;28;20438;-78
2022/09/14 08:44:11;;;;;;;11.88;1.73;;;;;;;;;;4999168;28;20034;-78
2022/09/14 08:46:58;;;;;;;10.52;2.05;;;;;;;;;;4988110;28;20468;-78
2022/09/14 08:49:30;;;;;;;7.78;1.17;;;;;;;;;;4976851;28;20077;-78
2022/09/14 08:51:56;;;;;;;12.60;1.30;;;;;;;;;;4981588;28;20388;-78
2022/09/14 08:54:22;;;;;;;12.27;1.30;;;;;;;;;;4982351;28;20089;-78
2022/09/14 08:56:52;;;;;;;5.70;1.30;;;;;;;;;;4981035;28;20125;-77
2022/09/14 08:59:24;;;;;;;8.32;1.50;;;;;;;;;;4983768;28;20076;-78
2022/09/14 09:01:50;;;;;;;12.00;1.63;;;;;;;;;;4978995;28;20034;-78
2022/09/14 09:04:19;;;;;;;9.35;2.05;;;;;;;;;;4983184;28;20084;-78
2022/09/14 09:06:54;;;;;;;7.15;2.00;;;;;;;;;;4981457;28;20038;-78
2022/09/14 09:09:20;;;;;;;9.63;1.42;;;;;;;;;;4982328;28;20057;-78
2022/09/14 09:11:48;;;;;;;11.13;1.88;;;;;;;;;;4980550;28;20117;-78
2022/09/14 09:14:28;;;;;;;17.15;2.05;;;;;;;;;;4981812;28;20038;-78
2022/09/14 09:16:55;;;;;;;14.40;2.20;;;;;;;;;;4976518;28;20153;-78
2022/09/14 09:19:28;;;;;;;11.05;2.05;;;;;;;;;;4983034;28;20543;-78
2022/09/14 09:21:54;;;;;;;11.15;2.13;;;;;;;;;;4977167;28;20035;-78
2022/09/14 09:24:24;;;;;;;13.93;2.20;;;;;;;;;;4979965;28;20056;-78
2022/09/14 09:26:50;;;;;;;11.63;2.03;;;;;;;;;;4976312;28;20038;-78
2022/09/14 09:29:16;;;;;;;10.80;2.15;;;;;;;;;;4979094;28;20038;-78
2022/09/14 09:31:48;;;;;;;12.23;1.92;;;;;;;;;;4980583;28;20039;-78
2022/09/14 09:34:15;;;;;;;8.68;1.63;;;;;;;;;;4977392;28;20030;-78
2022/09/14 09:36:44;;;;;;;12.85;2.35;;;;;;;;;;4983188;28;20026;-78
2022/09/14 09:39:11;;;;;;;8.77;1.50;;;;;;;;;;4978353;28;20031;-78
2022/09/14 09:41:43;;;;;;;9.10;2.03;;;;;;;;;;4983638;28;20053;-79
2022/09/14 09:44:09;;;;;;;6.63;1.60;;;;;;;;;;4981456;28;20049;-78
2022/09/14 09:46:55;;;;;;;10.57;1.75;;;;;;;;;;4981396;28;20127;-78
2022/09/14 09:49:25;;;;;;;10.57;1.92;;;;;;;;;;4981285;28;20541;-77
2022/09/14 09:51:52;;;;;;;6.40;1.67;;;;;;;;;;4979138;28;20437;-78
2022/09/14 09:54:19;;;;;;;14.27;1.70;;;;;;;;;;4978127;28;20061;-78
2022/09/14 09:56:50;;;;;;;10.13;1.75;;;;;;;;;;4972299;28;20531;-78
2022/09/14 09:59:16;;;;;;;;;;;;;;;;;;4982957;28;20034;-78
2022/09/14 10:01:42;;;;;;;9.27;1.60;;;;;;;;;;4981987;28;19973;-78
2022/09/14 10:04:11;;;;;;;9.90;2.13;;;;;;;;;;4976019;28;20037;-78
2022/09/14 10:06:42;;;;;;;9.52;1.67;;;;;;;;;;4980838;28;20038;-78
2022/09/14 10:09:12;;;;;;;11.35;2.42;;;;;;;;;;4980720;28;20583;-78
2022/09/14 10:11:39;;;;;;;11.00;2.00;;;;;;;;;;4980400;28;20137;-78
2022/09/14 10:14:05;;;;;;;12.68;1.95;;;;;;;;;;4978164;28;20031;-78
2022/09/14 10:16:34;;;;;;;9.40;1.80;;;;;;;;;;4978958;28;20038;-78
2022/09/14 10:19:02;;;;;;;8.90;1.88;;;;;;;;;;4978506;28;20022;-78
2022/09/14 10:21:30;;;;;;;13.32;2.50;;;;;;;;;;4977265;28;20038;-78
2022/09/14 10:24:22;;;;;;;10.90;2.08;;;;;;;;;;4979259;28;20563;-78
2022/09/14 10:26:48;;;;;;;8.35;1.73;;;;;;;;;;4976519;28;20393;-78
2022/09/14 10:29:26;;;;;;;12.13;1.88;;;;;;;;;;4981515;28;20070;-78
2022/09/14 10:31:54;;;;;;;9.25;1.85;;;;;;;;;;4977580;28;20126;-78
2022/09/14 10:34:20;;;;;;;10.93;1.65;;;;;;;;;;4981199;28;20064;-78
2022/09/14 10:36:50;;;;;;;10.20;1.42;;;;;;;;;;4981001;28;20369;-78
2022/09/14 10:39:25;;;;;;;11.02;1.52;;;;;;;;;;4975889;28;20522;-78
2022/09/14 10:42:04;;;;;;;8.27;1.63;;;;;;;;;;4979989;28;20061;-78
2022/09/14 10:44:45;;;;;;;10.48;1.88;;;;;;;;;;4978265;28;20026;-78
2022/09/14 10:47:20;;;;;;;11.45;1.77;;;;;;;;;;4979446;28;20488;-78
2022/09/14 10:49:46;;;;;;;7.15;1.20;;;;;;;;;;4981158;28;20104;-79
2022/09/14 10:52:12;;;;;;;8.65;1.42;;;;;;;;;;4979263;28;20034;-78
2022/09/14 10:55:04;;;;;;;7.70;1.48;;;;;;;;;;4980250;28;20629;-78
2022/09/14 10:57:33;;;;;;;11.75;1.65;;;;;;;;;;4956446;28;20484;-79
2022/09/14 11:00:04;;;;;;;10.65;1.70;;;;;;;;;;4977623;28;20034;-78
2022/09/14 11:02:48;;;;;;;8.18;1.45;;;;;;;;;;4978229;28;20035;-79
2022/09/14 11:05:19;;;;;;;7.63;1.30;;;;;;;;;;4977457;28;20078;-78
2022/09/14 11:07:45;;;;;;;7.90;1.10;;;;;;;;;;4981727;28;20121;-78
2022/09/14 11:10:21;;;;;;;7.30;1.30;;;;;;;;;;4983874;28;20217;-79
2022/09/14 11:13:02;;;;;;;7.95;1.77;;;;;;;;;;4983803;28;20030;-78
2022/09/14 11:15:35;;;;;;;9.93;1.48;;;;;;;;;;4982127;28;20381;-78
2022/09/14 11:18:07;;;;;;;11.20;1.63;;;;;;;;;;4983502;28;20105;-78
2022/09/14 11:20:51;;;;;;;7.18;1.67;;;;;;;;;;4981681;28;20093;-79
2022/09/14 11:23:36;;;;;;;8.48;1.27;;;;;;;;;;4979620;28;20068;-78
2022/09/14 11:26:22;;;;;;;9.65;1.38;;;;;;;;;;4982825;28;20161;-78
2022/09/14 11:28:51;;;;;;;7.22;1.23;;;;;;;;;;4982732;28;20034;-78
2022/09/14 11:31:44;;;;;;;9.93;1.50;;;;;;;;;;4979032;28;20042;-78
2022/09/14 11:34:18;;;;;;;9.63;1.55;;;;;;;;;;4977792;28;20039;-78
2022/09/14 11:36:49;;;;;;;10.27;1.30;;;;;;;;;;4977755;28;20372;-78
2022/09/14 11:39:19;;;;;;;6.70;1.67;;;;;;;;;;4981136;28;20092;-78
2022/09/14 11:41:51;;;;;;;11.20;1.58;;;;;;;;;;4984254;28;20392;-79
2022/09/14 11:44:20;;;;;;;10.80;1.60;;;;;;;;;;4983813;28;20530;-79
2022/09/14 11:46:46;;;;;;;13.02;1.60;;;;;;;;;;4993797;28;20153;-78
2022/09/14 11:49:15;;;;;;;6.32;1.63;;;;;;;;;;4999143;28;20112;-78
2022/09/14 11:52:18;;;;;;;9.23;1.60;;;;;;;;;;5001065;28;20033;-78
2022/09/14 11:54:44;;;;;;;7.45;1.55;;;;;;;;;;4905733;29;20047;-78
2022/09/14 11:57:16;;;;;;;12.52;1.90;;;;;;;;;;4981984;28;20041;-79
2022/09/14 11:59:43;;;;;;;12.18;1.73;;;;;;;;;;5002463;28;20105;-78
2022/09/14 12:02:27;;;;;;;7.65;1.40;;;;;;;;;;4999960;28;20052;-78
2022/09/14 12:05:05;;;;;;;9.35;1.63;;;;;;;;;;5003518;28;20033;-78
2022/09/14 12:07:46;;;;;;;15.27;2.47;;;;;;;;;;4999892;28;20068;-78
2022/09/14 12:10:15;;;;;;;9.40;1.50;;;;;;;;;;5001523;28;20069;-78
2022/09/14 12:12:43;;;;;;;9.20;1.85;;;;;;;;;;5001481;28;20475;-78
2022/09/14 12:15:14;;;;;;;7.95;1.20;;;;;;;;;;5002923;28;20070;-78
2022/09/14 12:17:40;;;;;;;;;;;;;;;;;;5002465;28;20137;-78
2022/09/14 12:20:25;;;;;;;9.48;1.60;;;;;;;;;;5001433;28;20386;-78
2022/09/14 12:22:51;;;;;;;9.60;1.60;;;;;;;;;;4997582;28;20044;-78
2022/09/14 12:25:18;;;;;;;10.60;1.90;;;;;;;;;;5003640;28;20041;-79
2022/09/14 12:27:46;;;;;;;9.77;1.63;;;;;;;;;;5000613;28;20029;-78
2022/09/14 12:30:32;;;;;;;12.55;1.70;;;;;;;;;;5002123;28;20104;-76
2022/09/14 12:32:58;;;;;;;9.43;1.70;;;;;;;;;;4997047;28;20026;-79
2022/09/14 12:35:45;;;;;;;7.10;1.38;;;;;;;;;;4998727;28;20388;-78
2022/09/14 12:38:29;;;;;;;9.52;1.50;;;;;;;;;;5000961;28;20464;-76
2022/09/14 12:40:55;;;;;;;11.25;1.58;;;;;;;;;;5000178;28;20430;-78
2022/09/14 12:43:33;;;;;;;9.98;1.58;;;;;;;;;;4997428;28;20055;-78
2022/09/14 12:46:20;;;;;;;7.88;1.38;;;;;;;;;;4998639;28;20057;-78
2022/09/14 12:48:46;;;;;;;10.40;2.13;;;;;;;;;;4988376;28;20503;-78
2022/09/14 12:51:32;;;;;;;9.05;1.80;;;;;;;;;;4996457;28;20042;-78
2022/09/14 12:54:01;;;;;;;7.97;1.60;;;;;;;;;;4984399;28;20042;-79
2022/09/14 12:56:42;;;;;;;9.73;1.98;;;;;;;;;;4996803;28;20057;-78
2022/09/14 12:59:24;;;;;;;11.00;1.97;;;;;;;;;;4999864;28;20625;-78
2022/09/14 13:01:57;;;;;;;6.53;1.58;;;;;;;;;;4999101;28;20303;-78
2022/09/14 13:04:33;;;;;;;9.32;2.22;;;;;;;;;;5002692;28;20065;-78
2022/09/14 13:07:01;;;;;;;8.63;1.60;;;;;;;;;;4997524;28;20129;-79
2022/09/14 13:09:28;;;;;;;11.00;1.50;;;;;;;;;;4999677;28;20033;-78
2022/09/14 13:11:58;;;;;;;9.38;1.30;;;;;;;;;;5000830;28;20065;-79
2022/09/14 13:14:27;;;;;;;7.93;1.40;;;;;;;;;;5001679;28;20034;-79
2022/09/14 13:16:53;;;;;;;10.35;1.50;;;;;;;;;;4996810;28;20038;-78
2022/09/14 13:19:24;;;;;;;12.02;1.83;;;;;;;;;;4999078;28;20068;-79
2022/09/14 13:21:52;;;;;;;7.97;1.90;;;;;;;;;;4998281;28;20118;-76
2022/09/14 13:24:22;;;;;;;8.65;1.60;;;;;;;;;;5001678;28;20600;-79
2022/09/14 13:26:49;;;;;;;13.02;1.40;;;;;;;;;;4998555;28;20041;-78
2022/09/14 13:29:15;;;;;;;9.15;1.30;;;;;;;;;;4998512;28;20034;-78
2022/09/14 13:31:43;;;;;;;8.00;1.45;;;;;;;;;;4991008;28;20045;-79
2022/09/14 13:34:29;;;;;;;12.32;1.40;;;;;;;;;;4984473;28;20077;-79
2022/09/14 13:36:56;;;;;;;12.90;1.60;;;;;;;;;;4997996;28;20072;-78
2022/09/14 13:39:22;;;;;;;9.65;2.03;;;;;;;;;;4983068;28;20505;-78
2022/09/14 13:41:49;;;;;;;6.50;1.20;;;;;;;;;;4997489;28;20052;-78
2022/09/14 13:44:15;;;;;;;8.88;1.42;;;;;;;;;;5001950;28;20038;-76
2022/09/14 13:46:41;;;;;;;5.88;1.13;;;;;;;;;;4998191;28;20077;-78
2022/09/14 13:49:07;;;;;;;7.40;1.50;;;;;;;;;;5000382;28;20037;-79
2022/09/14 13:51:34;;;;;;;4.03;1.15;;;;;;;;;;5001765;28;20075;-78
2022/09/14 13:54:16;;;;;;;10.07;1.45;;;;;;;;;;4997629;28;20383;-78
2022/09/14 13:56:42;;;;;;;4.85;1.15;;;;;;;;;;4997448;28;20034;-78
2022/09/14 13:59:09;;;;;;;5.57;1.38;;;;;;;;;;4994851;28;20506;-78
2022/09/14 14:01:39;;;;;;;8.55;1.77;;;;;;;;;;4996484;28;20042;-78
2022/09/14 14:04:05;;;;;;;6.68;1.30;;;;;;;;;;5000635;28;20037;-78
2022/09/14 14:06:33;;;;;;;14.05;1.50;;;;;;;;;;5000903;28;20026;-78
2022/09/14 14:09:00;;;;;;;8.45;1.30;;;;;;;;;;5000723;28;20034;-76
2022/09/14 14:11:46;;;;;;;5.65;1.35;;;;;;;;;;4999533;28;20037;-79
2022/09/14 14:14:15;;;;;;;10.20;1.40;;;;;;;;;;4999171;28;20037;-76
2022/09/14 14:16:41;;;;;;;5.28;1.08;;;;;;;;;;5000377;28;20037;-78
2022/09/14 14:19:27;;;;;;;6.47;1.30;;;;;;;;;;4997267;28;20030;-76
2022/09/14 14:22:11;;;;;;;4.05;0.93;;;;;;;;;;4972896;28;20459;-78
2022/09/14 14:24:37;;;;;;;6.03;1.00;;;;;;;;;;5000519;28;20563;-78
2022/09/14 14:27:03;;;;;;;7.47;1.40;;;;;;;;;;4999103;28;20089;-79
2022/09/14 14:29:29;;;;;;;9.00;1.38;;;;;;;;;;4999227;28;20255;-79
2022/09/14 14:31:55;;;;;;;8.30;1.40;;;;;;;;;;4998992;28;20460;-79
2022/09/14 14:34:26;;;;;;;8.27;1.58;;;;;;;;;;5000810;28;20372;-78
2022/09/14 14:36:52;;;;;;;9.25;1.40;;;;;;;;;;4997109;28;20041;-78
2022/09/14 14:39:20;;;;;;;9.10;1.65;;;;;;;;;;5000834;28;20025;-75
2022/09/14 14:41:46;;;;;;;7.90;1.42;;;;;;;;;;5001952;28;20034;-76
2022/09/14 14:44:15;;;;;;;7.72;1.60;;;;;;;;;;5004336;28;20030;-76
2022/09/14 14:46:41;;;;;;;7.30;1.08;;;;;;;;;;5001456;28;20058;-79
2022/09/14 14:49:10;;;;;;;8.70;1.50;;;;;;;;;;5004059;28;20109;-79
2022/09/14 14:51:37;;;;;;;7.65;1.33;;;;;;;;;;5003669;28;20413;-76